KCMH

John Glenn Columbus International Airport

Columbus, Ohio, USA
METAR KCMH 230951Z 14005KT 1SM R28L/P6000FT BR OVC003 06/06 A3030 RMK AO2 SLP264 T00610061
Observed Flight Rules
Feb-23 @ 09:51 UTC (35 minutes ago) Instrument Flight Rules
Wind Visibility Clouds Conditions
140° at 5 knots 1 miles
  • Overcast at 300' AGL
  • Mist
Temperatures Readings
Current 6°C / 43°F
Dewpoint 6°C / 43°F
Humidity 100%
Altimeter 30.3" Hg
Pressure 1026.4 hPa
Elevation 247
METAR KCMH 230951Z 14005KT 1SM R28L/P6000FT BR OVC003 06/06 A3030 RMK AO2 SLP264 T00610061
Observed Flight Rules
Feb-23 @ 09:51 UTC
(35 minutes ago)
LIFR
Wind Visibility
140° at 5 knots 1 miles
Clouds
  • Overcast at 300' AGL
Conditions
  • Mist
Temperature Dewpoint
6°C / 43°F 6°C / 43°F
Humidity Altimeter Pressure
100% 30.3" Hg 1026.4 hPa